sensor_id;sensor_type;location;lat;lon;timestamp;pressure;altitude;pressure_sealevel;temperature;humidity
35489;BME280;21602;55.670;37.578;2022-09-09T00:02:08;99888.81;;;8.33;71.31
35489;BME280;21602;55.670;37.578;2022-09-09T00:04:28;99898.63;;;8.33;71.62
35489;BME280;21602;55.670;37.578;2022-09-09T00:07:23;99888.41;;;8.23;71.79
35489;BME280;21602;55.670;37.578;2022-09-09T00:15:46;99894.94;;;8.01;72.45
35489;BME280;21602;55.670;37.578;2022-09-09T00:20:56;99899.81;;;7.97;72.70
35489;BME280;21602;55.670;37.578;2022-09-09T00:23:35;99893.50;;;7.98;72.86
35489;BME280;21602;55.670;37.578;2022-09-09T00:28:39;99908.44;;;7.99;72.96
35489;BME280;21602;55.670;37.578;2022-09-09T00:31:14;99908.00;;;8.02;73.11
35489;BME280;21602;55.670;37.578;2022-09-09T00:33:42;99903.13;;;7.99;73.06
35489;BME280;21602;55.670;37.578;2022-09-09T00:36:18;99904.75;;;8.00;73.30
35489;BME280;21602;55.670;37.578;2022-09-09T00:38:52;99909.44;;;8.05;73.04
35489;BME280;21602;55.670;37.578;2022-09-09T00:44:21;99913.16;;;8.04;73.20
35489;BME280;21602;55.670;37.578;2022-09-09T00:50:00;99925.63;;;8.03;73.54
35489;BME280;21602;55.670;37.578;2022-09-09T00:52:58;99919.06;;;7.99;73.55
35489;BME280;21602;55.670;37.578;2022-09-09T00:58:31;99924.56;;;7.91;73.74
35489;BME280;21602;55.670;37.578;2022-09-09T01:01:04;99923.56;;;8.05;73.93
35489;BME280;21602;55.670;37.578;2022-09-09T01:04:10;99930.72;;;8.05;73.55
35489;BME280;21602;55.670;37.578;2022-09-09T01:06:43;99931.94;;;8.02;73.60
35489;BME280;21602;55.670;37.578;2022-09-09T01:09:32;99933.38;;;7.98;74.04
35489;BME280;21602;55.670;37.578;2022-09-09T01:12:23;99931.34;;;7.93;73.88
35489;BME280;21602;55.670;37.578;2022-09-09T01:15:07;99936.22;;;7.96;73.90
35489;BME280;21602;55.670;37.578;2022-09-09T01:17:48;99937.88;;;8.04;73.73
35489;BME280;21602;55.670;37.578;2022-09-09T01:23:16;99940.13;;;7.94;73.56
35489;BME280;21602;55.670;37.578;2022-09-09T01:26:07;99944.81;;;7.92;73.66
35489;BME280;21602;55.670;37.578;2022-09-09T01:28:36;99942.31;;;7.77;73.97
35489;BME280;21602;55.670;37.578;2022-09-09T01:31:09;99943.97;;;7.78;73.68
35489;BME280;21602;55.670;37.578;2022-09-09T01:33:42;99947.69;;;7.84;73.81
35489;BME280;21602;55.670;37.578;2022-09-09T01:38:44;99958.09;;;7.79;73.76
35489;BME280;21602;55.670;37.578;2022-09-09T01:41:10;99961.34;;;7.81;74.11
35489;BME280;21602;55.670;37.578;2022-09-09T01:43:44;99948.50;;;7.84;73.87
35489;BME280;21602;55.670;37.578;2022-09-09T01:46:10;99949.91;;;7.87;73.99
35489;BME280;21602;55.670;37.578;2022-09-09T01:48:39;99957.88;;;7.87;73.95
35489;BME280;21602;55.670;37.578;2022-09-09T01:51:09;99959.72;;;7.80;74.06
35489;BME280;21602;55.670;37.578;2022-09-09T01:53:37;99964.00;;;7.81;74.17
35489;BME280;21602;55.670;37.578;2022-09-09T02:02:13;99967.31;;;7.89;74.27
35489;BME280;21602;55.670;37.578;2022-09-09T02:04:52;99972.22;;;7.86;74.78
35489;BME280;21602;55.670;37.578;2022-09-09T02:09:58;99979.97;;;7.87;75.07
35489;BME280;21602;55.670;37.578;2022-09-09T02:12:30;99968.31;;;7.82;75.02
35489;BME280;21602;55.670;37.578;2022-09-09T02:15:07;99973.63;;;7.82;75.27
35489;BME280;21602;55.670;37.578;2022-09-09T02:17:46;99977.91;;;7.83;75.31
35489;BME280;21602;55.670;37.578;2022-09-09T02:20:15;99982.84;;;7.86;75.60
35489;BME280;21602;55.670;37.578;2022-09-09T02:22:50;99985.03;;;7.69;76.23
35489;BME280;21602;55.670;37.578;2022-09-09T02:25:21;99982.56;;;7.67;76.37
35489;BME280;21602;55.670;37.578;2022-09-09T02:27:50;99985.59;;;7.51;76.70
35489;BME280;21602;55.670;37.578;2022-09-09T02:30:18;99978.19;;;7.47;77.05
35489;BME280;21602;55.670;37.578;2022-09-09T02:33:06;99990.81;;;7.38;77.39
35489;BME280;21602;55.670;37.578;2022-09-09T02:35:45;99993.28;;;7.39;77.56
35489;BME280;21602;55.670;37.578;2022-09-09T02:38:15;99990.16;;;7.29;78.27
35489;BME280;21602;55.670;37.578;2022-09-09T02:40:51;99987.06;;;7.26;78.30
35489;BME280;21602;55.670;37.578;2022-09-09T02:43:17;100001.00;;;7.28;78.18
35489;BME280;21602;55.670;37.578;2022-09-09T02:49:00;99997.78;;;7.39;77.68
35489;BME280;21602;55.670;37.578;2022-09-09T02:51:40;100002.28;;;7.38;77.86
35489;BME280;21602;55.670;37.578;2022-09-09T02:54:27;100006.75;;;7.38;78.23
35489;BME280;21602;55.670;37.578;2022-09-09T02:57:03;100020.03;;;7.31;78.18
35489;BME280;21602;55.670;37.578;2022-09-09T02:59:36;100023.63;;;7.24;78.90
35489;BME280;21602;55.670;37.578;2022-09-09T03:02:02;100016.47;;;7.17;78.92
35489;BME280;21602;55.670;37.578;2022-09-09T03:04:51;100017.63;;;7.08;79.19
35489;BME280;21602;55.670;37.578;2022-09-09T03:07:21;100018.78;;;6.99;79.79
35489;BME280;21602;55.670;37.578;2022-09-09T03:09:48;100016.72;;;6.95;80.03
35489;BME280;21602;55.670;37.578;2022-09-09T03:12:14;100016.28;;;6.91;80.36
35489;BME280;21602;55.670;37.578;2022-09-09T03:14:40;100013.00;;;6.89;80.45
35489;BME280;21602;55.670;37.578;2022-09-09T03:17:06;100021.59;;;6.91;80.64
35489;BME280;21602;55.670;37.578;2022-09-09T03:19:37;100029.50;;;6.84;81.62
35489;BME280;21602;55.670;37.578;2022-09-09T03:22:05;100025.84;;;6.85;81.11
35489;BME280;21602;55.670;37.578;2022-09-09T03:24:34;100020.72;;;6.84;81.91
35489;BME280;21602;55.670;37.578;2022-09-09T03:27:03;100028.16;;;6.95;81.27
35489;BME280;21602;55.670;37.578;2022-09-09T03:29:29;100026.56;;;7.01;81.16
35489;BME280;21602;55.670;37.578;2022-09-09T03:31:58;100033.56;;;7.08;81.08
35489;BME280;21602;55.670;37.578;2022-09-09T03:34:24;100032.56;;;7.16;80.83
35489;BME280;21602;55.670;37.578;2022-09-09T03:36:49;100033.66;;;7.22;80.89
35489;BME280;21602;55.670;37.578;2022-09-09T03:39:16;100032.03;;;7.27;80.54
35489;BME280;21602;55.670;37.578;2022-09-09T03:41:43;100045.16;;;7.35;80.73
35489;BME280;21602;55.670;37.578;2022-09-09T03:44:11;100038.25;;;7.41;80.68
35489;BME280;21602;55.670;37.578;2022-09-09T03:46:40;100046.63;;;7.44;80.56
35489;BME280;21602;55.670;37.578;2022-09-09T03:49:06;100046.84;;;7.43;80.40
35489;BME280;21602;55.670;37.578;2022-09-09T03:51:32;100054.19;;;7.41;80.58
35489;BME280;21602;55.670;37.578;2022-09-09T03:54:02;100058.88;;;7.39;80.71
35489;BME280;21602;55.670;37.578;2022-09-09T03:56:31;100057.66;;;7.41;80.27
35489;BME280;21602;55.670;37.578;2022-09-09T03:58:57;100055.00;;;7.41;80.03
35489;BME280;21602;55.670;37.578;2022-09-09T04:01:24;100063.81;;;7.49;80.06
35489;BME280;21602;55.670;37.578;2022-09-09T04:03:50;100064.25;;;7.52;79.61
35489;BME280;21602;55.670;37.578;2022-09-09T04:06:16;100062.00;;;7.49;79.18
35489;BME280;21602;55.670;37.578;2022-09-09T04:08:45;100064.66;;;7.49;79.19
35489;BME280;21602;55.670;37.578;2022-09-09T04:11:14;100066.00;;;7.32;79.57
35489;BME280;21602;55.670;37.578;2022-09-09T04:13:41;100067.25;;;7.36;79.18
35489;BME280;21602;55.670;37.578;2022-09-09T04:16:11;100053.56;;;7.39;79.29
35489;BME280;21602;55.670;37.578;2022-09-09T04:18:39;100060.84;;;7.30;79.17
35489;BME280;21602;55.670;37.578;2022-09-09T04:21:06;100069.03;;;7.29;79.14
35489;BME280;21602;55.670;37.578;2022-09-09T04:23:34;100074.53;;;7.27;79.59
35489;BME280;21602;55.670;37.578;2022-09-09T04:26:02;100075.72;;;7.25;79.59
35489;BME280;21602;55.670;37.578;2022-09-09T04:28:33;100067.84;;;7.31;78.87
35489;BME280;21602;55.670;37.578;2022-09-09T04:31:06;100076.66;;;7.38;78.68
35489;BME280;21602;55.670;37.578;2022-09-09T04:33:33;100075.47;;;7.48;78.59
35489;BME280;21602;55.670;37.578;2022-09-09T04:36:00;100071.00;;;7.55;77.95
35489;BME280;21602;55.670;37.578;2022-09-09T04:38:26;100070.84;;;7.63;78.29
35489;BME280;21602;55.670;37.578;2022-09-09T04:40:53;100064.88;;;7.54;78.00
35489;BME280;21602;55.670;37.578;2022-09-09T04:43:20;100078.13;;;7.48;78.41
35489;BME280;21602;55.670;37.578;2022-09-09T04:45:49;100077.56;;;7.59;78.51
35489;BME280;21602;55.670;37.578;2022-09-09T04:48:15;100083.34;;;7.69;78.16
35489;BME280;21602;55.670;37.578;2022-09-09T04:50:41;100077.88;;;7.77;77.87
35489;BME280;21602;55.670;37.578;2022-09-09T04:53:09;100080.09;;;7.74;77.31
35489;BME280;21602;55.670;37.578;2022-09-09T04:55:37;100072.97;;;7.74;77.46
35489;BME280;21602;55.670;37.578;2022-09-09T04:58:04;100082.16;;;7.78;77.24
35489;BME280;21602;55.670;37.578;2022-09-09T05:00:32;100087.31;;;7.86;77.17
35489;BME280;21602;55.670;37.578;2022-09-09T05:03:03;100088.63;;;8.04;76.83
35489;BME280;21602;55.670;37.578;2022-09-09T05:05:29;100088.91;;;8.22;76.54
35489;BME280;21602;55.670;37.578;2022-09-09T05:08:01;100089.34;;;8.32;75.79
35489;BME280;21602;55.670;37.578;2022-09-09T05:10:28;100096.97;;;8.42;75.24
35489;BME280;21602;55.670;37.578;2022-09-09T05:12:53;100091.22;;;8.45;75.31
35489;BME280;21602;55.670;37.578;2022-09-09T05:15:23;100100.06;;;8.52;74.98
35489;BME280;21602;55.670;37.578;2022-09-09T05:17:49;100097.00;;;8.55;75.04
35489;BME280;21602;55.670;37.578;2022-09-09T05:20:15;100105.19;;;8.67;74.43
35489;BME280;21602;55.670;37.578;2022-09-09T05:22:42;100105.84;;;8.76;73.21
35489;BME280;21602;55.670;37.578;2022-09-09T05:25:08;100105.63;;;8.70;73.18
35489;BME280;21602;55.670;37.578;2022-09-09T05:27:34;100109.09;;;8.71;72.81
35489;BME280;21602;55.670;37.578;2022-09-09T05:30:00;100113.19;;;8.67;72.96
35489;BME280;21602;55.670;37.578;2022-09-09T05:32:26;100116.88;;;8.59;72.50
35489;BME280;21602;55.670;37.578;2022-09-09T05:34:52;100109.09;;;8.71;72.42
35489;BME280;21602;55.670;37.578;2022-09-09T05:37:18;100107.69;;;8.75;71.67
35489;BME280;21602;55.670;37.578;2022-09-09T05:39:44;100109.53;;;8.88;72.05
35489;BME280;21602;55.670;37.578;2022-09-09T05:42:11;100105.03;;;8.95;70.96
35489;BME280;21602;55.670;37.578;2022-09-09T05:44:37;100110.53;;;9.07;71.51
35489;BME280;21602;55.670;37.578;2022-09-09T05:47:03;100118.16;;;9.23;70.74
35489;BME280;21602;55.670;37.578;2022-09-09T05:49:29;100105.84;;;9.35;70.49
35489;BME280;21602;55.670;37.578;2022-09-09T05:51:55;100114.44;;;9.24;68.93
35489;BME280;21602;55.670;37.578;2022-09-09T05:54:22;100111.56;;;9.26;68.59
35489;BME280;21602;55.670;37.578;2022-09-09T05:56:51;100112.84;;;9.16;68.79
35489;BME280;21602;55.670;37.578;2022-09-09T05:59:19;100120.59;;;9.24;68.86
35489;BME280;21602;55.670;37.578;2022-09-09T06:01:45;100111.56;;;9.39;68.37
35489;BME280;21602;55.670;37.578;2022-09-09T06:04:19;100119.56;;;9.45;67.83
35489;BME280;21602;55.670;37.578;2022-09-09T06:06:50;100118.31;;;9.61;67.47
35489;BME280;21602;55.670;37.578;2022-09-09T06:09:18;100113.75;;;9.68;65.77
35489;BME280;21602;55.670;37.578;2022-09-09T06:11:44;100121.34;;;9.71;65.77
35489;BME280;21602;55.670;37.578;2022-09-09T06:14:11;100126.91;;;9.63;65.06
35489;BME280;21602;55.670;37.578;2022-09-09T06:16:38;100122.56;;;9.75;65.78
35489;BME280;21602;55.670;37.578;2022-09-09T06:19:06;100125.81;;;9.91;65.62
35489;BME280;21602;55.670;37.578;2022-09-09T06:21:36;100134.38;;;10.06;63.89
35489;BME280;21602;55.670;37.578;2022-09-09T06:24:05;100131.06;;;10.11;63.53
35489;BME280;21602;55.670;37.578;2022-09-09T06:26:38;100127.75;;;10.15;63.58
35489;BME280;21602;55.670;37.578;2022-09-09T06:29:07;100133.13;;;10.09;62.42
35489;BME280;21602;55.670;37.578;2022-09-09T06:31:36;100139.25;;;10.22;63.28
35489;BME280;21602;55.670;37.578;2022-09-09T06:34:19;100138.41;;;10.29;62.98
35489;BME280;21602;55.670;37.578;2022-09-09T06:36:49;100141.09;;;10.29;61.79
35489;BME280;21602;55.670;37.578;2022-09-09T06:39:15;100143.53;;;10.23;61.36
35489;BME280;21602;55.670;37.578;2022-09-09T06:41:42;100142.31;;;10.19;61.14
35489;BME280;21602;55.670;37.578;2022-09-09T06:44:18;100141.38;;;10.00;60.30
35489;BME280;21602;55.670;37.578;2022-09-09T06:46:45;100154.34;;;9.97;60.31
35489;BME280;21602;55.670;37.578;2022-09-09T06:49:14;100151.81;;;10.09;60.48
35489;BME280;21602;55.670;37.578;2022-09-09T06:51:40;100142.59;;;10.11;59.90
35489;BME280;21602;55.670;37.578;2022-09-09T06:54:11;100169.63;;;10.21;59.98
35489;BME280;21602;55.670;37.578;2022-09-09T06:56:40;100153.63;;;10.21;59.23
35489;BME280;21602;55.670;37.578;2022-09-09T06:59:12;100161.22;;;10.24;59.28
35489;BME280;21602;55.670;37.578;2022-09-09T07:01:41;100163.47;;;10.28;58.95
35489;BME280;21602;55.670;37.578;2022-09-09T07:04:10;100159.56;;;10.30;59.20
35489;BME280;21602;55.670;37.578;2022-09-09T07:06:44;100162.63;;;10.34;58.58
35489;BME280;21602;55.670;37.578;2022-09-09T07:09:15;100166.91;;;10.35;58.73
35489;BME280;21602;55.670;37.578;2022-09-09T07:11:46;100172.03;;;10.49;58.41
35489;BME280;21602;55.670;37.578;2022-09-09T07:14:14;100165.34;;;10.65;57.13
35489;BME280;21602;55.670;37.578;2022-09-09T07:16:42;100161.16;;;10.83;57.30
35489;BME280;21602;55.670;37.578;2022-09-09T07:19:08;100170.72;;;10.97;55.94
35489;BME280;21602;55.670;37.578;2022-09-09T07:21:35;100173.56;;;11.02;55.72
35489;BME280;21602;55.670;37.578;2022-09-09T07:24:02;100166.22;;;11.22;55.18
35489;BME280;21602;55.670;37.578;2022-09-09T07:26:30;100172.03;;;11.38;55.14
35489;BME280;21602;55.670;37.578;2022-09-09T07:28:58;100174.97;;;11.29;53.57
35489;BME280;21602;55.670;37.578;2022-09-09T07:31:31;100180.88;;;11.13;53.19
35489;BME280;21602;55.670;37.578;2022-09-09T07:33:58;100185.25;;;11.01;54.15
35489;BME280;21602;55.670;37.578;2022-09-09T07:36:40;100188.28;;;11.11;54.42
35489;BME280;21602;55.670;37.578;2022-09-09T07:39:10;100191.06;;;11.23;53.86
35489;BME280;21602;55.670;37.578;2022-09-09T07:41:46;100188.03;;;11.44;53.32
35489;BME280;21602;55.670;37.578;2022-09-09T07:44:15;100194.94;;;11.52;52.77
35489;BME280;21602;55.670;37.578;2022-09-09T07:46:44;100195.19;;;11.50;52.22
35489;BME280;21602;55.670;37.578;2022-09-09T07:49:14;100208.78;;;11.49;52.41
35489;BME280;21602;55.670;37.578;2022-09-09T07:51:43;100201.50;;;11.31;52.44
35489;BME280;21602;55.670;37.578;2022-09-09T07:54:12;100202.41;;;11.18;52.66
35489;BME280;21602;55.670;37.578;2022-09-09T07:56:41;100205.75;;;11.14;51.90
35489;BME280;21602;55.670;37.578;2022-09-09T07:59:09;100204.88;;;11.20;52.45
35489;BME280;21602;55.670;37.578;2022-09-09T08:01:37;100202.88;;;11.40;52.69
35489;BME280;21602;55.670;37.578;2022-09-09T08:04:11;100213.50;;;11.72;52.61
35489;BME280;21602;55.670;37.578;2022-09-09T08:06:46;100207.13;;;11.98;52.33
35489;BME280;21602;55.670;37.578;2022-09-09T08:09:13;100210.00;;;12.15;51.26
35489;BME280;21602;55.670;37.578;2022-09-09T08:11:40;100205.19;;;12.23;50.47
35489;BME280;21602;55.670;37.578;2022-09-09T08:14:07;100198.94;;;12.29;50.32
35489;BME280;21602;55.670;37.578;2022-09-09T08:16:36;100202.34;;;12.55;49.76
35489;BME280;21602;55.670;37.578;2022-09-09T08:19:03;100200.81;;;12.77;49.71
35489;BME280;21602;55.670;37.578;2022-09-09T08:21:31;100208.88;;;12.77;49.28
35489;BME280;21602;55.670;37.578;2022-09-09T08:24:00;100199.94;;;12.65;49.86
35489;BME280;21602;55.670;37.578;2022-09-09T08:26:28;100205.53;;;12.64;50.26
35489;BME280;21602;55.670;37.578;2022-09-09T08:28:56;100210.69;;;12.77;50.14
35489;BME280;21602;55.670;37.578;2022-09-09T08:33:51;100202.97;;;12.99;50.00
35489;BME280;21602;55.670;37.578;2022-09-09T08:36:19;100214.31;;;13.01;49.76
35489;BME280;21602;55.670;37.578;2022-09-09T08:38:54;100215.97;;;12.84;49.44
35489;BME280;21602;55.670;37.578;2022-09-09T08:43:51;100216.19;;;12.15;50.66
35489;BME280;21602;55.670;37.578;2022-09-09T08:47:03;100217.44;;;11.94;50.42
35489;BME280;21602;55.670;37.578;2022-09-09T08:52:25;100218.59;;;11.55;51.02
35489;BME280;21602;55.670;37.578;2022-09-09T08:55:41;100220.19;;;11.88;50.80
35489;BME280;21602;55.670;37.578;2022-09-09T08:57:42;100217.19;;;12.39;50.44
35489;BME280;21602;55.670;37.578;2022-09-09T09:00:10;100221.47;;;12.59;49.72
35489;BME280;21602;55.670;37.578;2022-09-09T09:02:53;100221.34;;;12.84;50.85
35489;BME280;21602;55.670;37.578;2022-09-09T09:05:41;100221.47;;;12.89;50.37
35489;BME280;21602;55.670;37.578;2022-09-09T09:10:58;100235.16;;;12.32;50.06
35489;BME280;21602;55.670;37.578;2022-09-09T09:13:41;100241.84;;;12.23;50.70
35489;BME280;21602;55.670;37.578;2022-09-09T09:18:56;100235.09;;;12.20;50.43
35489;BME280;21602;55.670;37.578;2022-09-09T09:24:00;100229.75;;;12.20;50.64
35489;BME280;21602;55.670;37.578;2022-09-09T09:26:33;100223.50;;;12.45;50.37
35489;BME280;21602;55.670;37.578;2022-09-09T09:29:13;100220.69;;;12.70;50.17
35489;BME280;21602;55.670;37.578;2022-09-09T09:31:52;100223.47;;;12.93;49.37
35489;BME280;21602;55.670;37.578;2022-09-09T09:34:25;100228.03;;;12.93;49.67
35489;BME280;21602;55.670;37.578;2022-09-09T09:36:59;100225.38;;;12.74;49.63
35489;BME280;21602;55.670;37.578;2022-09-09T09:39:31;100231.81;;;12.55;50.03
35489;BME280;21602;55.670;37.578;2022-09-09T09:42:11;100231.66;;;12.50;50.36
35489;BME280;21602;55.670;37.578;2022-09-09T09:44:43;100231.88;;;12.48;50.52
35489;BME280;21602;55.670;37.578;2022-09-09T09:47:21;100227.66;;;12.41;49.80
35489;BME280;21602;55.670;37.578;2022-09-09T09:50:17;100234.50;;;12.37;49.66
35489;BME280;21602;55.670;37.578;2022-09-09T09:52:54;100227.50;;;12.54;49.33
35489;BME280;21602;55.670;37.578;2022-09-09T09:55:21;100222.97;;;12.85;48.75
35489;BME280;21602;55.670;37.578;2022-09-09T09:57:50;100220.81;;;13.05;48.29
35489;BME280;21602;55.670;37.578;2022-09-09T10:00:20;100223.16;;;13.31;47.77
35489;BME280;21602;55.670;37.578;2022-09-09T10:02:55;100219.69;;;13.54;47.74
35489;BME280;21602;55.670;37.578;2022-09-09T10:05:27;100227.16;;;13.64;47.13
35489;BME280;21602;55.670;37.578;2022-09-09T10:08:10;100224.13;;;13.19;47.28
35489;BME280;21602;55.670;37.578;2022-09-09T10:13:58;100229.28;;;13.20;47.94
35489;BME280;21602;55.670;37.578;2022-09-09T10:16:46;100231.00;;;13.15;48.08
35489;BME280;21602;55.670;37.578;2022-09-09T10:19:30;100233.50;;;13.28;47.83
35489;BME280;21602;55.670;37.578;2022-09-09T10:27:15;100226.69;;;13.44;47.39
35489;BME280;21602;55.670;37.578;2022-09-09T10:52:15;100227.72;;;13.43;47.98
35489;BME280;21602;55.670;37.578;2022-09-09T10:59:50;100228.78;;;13.12;47.21
35489;BME280;21602;55.670;37.578;2022-09-09T11:02:24;100241.13;;;13.13;47.17
35489;BME280;21602;55.670;37.578;2022-09-09T11:05:04;100236.72;;;13.18;46.92
35489;BME280;21602;55.670;37.578;2022-09-09T11:07:33;100240.50;;;13.29;46.71
35489;BME280;21602;55.670;37.578;2022-09-09T11:10:22;100236.56;;;13.43;46.19
35489;BME280;21602;55.670;37.578;2022-09-09T11:12:54;100233.19;;;13.48;45.67
35489;BME280;21602;55.670;37.578;2022-09-09T11:15:29;100229.75;;;13.59;45.85
35489;BME280;21602;55.670;37.578;2022-09-09T11:17:58;100225.78;;;13.73;45.41
35489;BME280;21602;55.670;37.578;2022-09-09T11:20:29;100225.28;;;13.76;45.37
35489;BME280;21602;55.670;37.578;2022-09-09T11:23:17;100239.09;;;13.68;45.70
35489;BME280;21602;55.670;37.578;2022-09-09T11:25:51;100244.97;;;13.47;46.66
35489;BME280;21602;55.670;37.578;2022-09-09T11:28:40;100234.84;;;13.19;47.23
35489;BME280;21602;55.670;37.578;2022-09-09T11:34:03;100244.13;;;12.74;47.67
35489;BME280;21602;55.670;37.578;2022-09-09T11:36:56;100238.94;;;12.61;47.68
35489;BME280;21602;55.670;37.578;2022-09-09T11:39:39;100246.84;;;12.56;48.23
35489;BME280;21602;55.670;37.578;2022-09-09T11:44:33;100237.97;;;12.74;48.07
35489;BME280;21602;55.670;37.578;2022-09-09T11:46:59;100232.59;;;13.04;48.05
35489;BME280;21602;55.670;37.578;2022-09-09T11:49:28;100233.88;;;13.31;47.51
35489;BME280;21602;55.670;37.578;2022-09-09T11:51:54;100237.19;;;13.57;47.29
35489;BME280;21602;55.670;37.578;2022-09-09T11:57:00;100227.88;;;13.95;46.71
35489;BME280;21602;55.670;37.578;2022-09-09T11:59:33;100226.38;;;14.11;46.66
35489;BME280;21602;55.670;37.578;2022-09-09T12:05:11;100226.13;;;14.12;45.09
35489;BME280;21602;55.670;37.578;2022-09-09T12:07:54;100231.25;;;14.14;45.27
35489;BME280;21602;55.670;37.578;2022-09-09T12:10:35;100227.28;;;14.16;45.14
35489;BME280;21602;55.670;37.578;2022-09-09T12:13:19;100227.16;;;14.23;45.18
35489;BME280;21602;55.670;37.578;2022-09-09T12:23:55;100216.91;;;13.96;45.37
35489;BME280;21602;55.670;37.578;2022-09-09T12:26:36;100227.97;;;13.76;46.09
35489;BME280;21602;55.670;37.578;2022-09-09T12:29:21;100245.69;;;13.42;46.91
35489;BME280;21602;55.670;37.578;2022-09-09T12:32:02;100233.59;;;13.21;47.10
35489;BME280;21602;55.670;37.578;2022-09-09T12:34:55;100231.31;;;13.25;47.32
35489;BME280;21602;55.670;37.578;2022-09-09T12:37:37;100211.75;;;13.36;47.17
35489;BME280;21602;55.670;37.578;2022-09-09T12:40:06;100222.34;;;13.43;46.65
35489;BME280;21602;55.670;37.578;2022-09-09T12:42:43;100223.41;;;13.42;47.00
35489;BME280;21602;55.670;37.578;2022-09-09T12:45:18;100227.50;;;13.56;46.71
35489;BME280;21602;55.670;37.578;2022-09-09T12:47:49;100224.72;;;13.74;46.56
35489;BME280;21602;55.670;37.578;2022-09-09T12:50:28;100227.63;;;13.84;46.32
35489;BME280;21602;55.670;37.578;2022-09-09T12:52:57;100222.88;;;13.87;46.30
35489;BME280;21602;55.670;37.578;2022-09-09T12:55:37;100228.47;;;13.85;46.08
35489;BME280;21602;55.670;37.578;2022-09-09T12:58:04;100222.38;;;13.66;46.32
35489;BME280;21602;55.670;37.578;2022-09-09T13:00:35;100224.72;;;13.74;45.81
35489;BME280;21602;55.670;37.578;2022-09-09T13:03:16;100223.91;;;13.86;45.22
35489;BME280;21602;55.670;37.578;2022-09-09T13:05:42;100226.25;;;13.70;45.23
35489;BME280;21602;55.670;37.578;2022-09-09T13:08:10;100232.41;;;13.59;45.26
35489;BME280;21602;55.670;37.578;2022-09-09T13:10:42;100220.84;;;13.47;45.73
35489;BME280;21602;55.670;37.578;2022-09-09T13:13:19;100223.44;;;13.65;45.29
35489;BME280;21602;55.670;37.578;2022-09-09T13:15:51;100219.25;;;13.69;45.47
35489;BME280;21602;55.670;37.578;2022-09-09T13:18:29;100224.13;;;13.49;46.14
35489;BME280;21602;55.670;37.578;2022-09-09T13:20:56;100228.19;;;13.40;46.55
35489;BME280;21602;55.670;37.578;2022-09-09T13:23:31;100231.78;;;13.33;46.77
35489;BME280;21602;55.670;37.578;2022-09-09T13:26:26;100221.41;;;13.37;47.08
35489;BME280;21602;55.670;37.578;2022-09-09T13:29:14;100224.56;;;13.34;47.04
35489;BME280;21602;55.670;37.578;2022-09-09T13:31:44;100245.75;;;13.24;47.18
35489;BME280;21602;55.670;37.578;2022-09-09T13:34:14;100224.94;;;13.19;47.11
35489;BME280;21602;55.670;37.578;2022-09-09T13:36:55;100230.78;;;13.16;47.29
35489;BME280;21602;55.670;37.578;2022-09-09T13:39:24;100226.91;;;13.12;47.43
35489;BME280;21602;55.670;37.578;2022-09-09T13:41:50;100228.19;;;13.10;47.45
35489;BME280;21602;55.670;37.578;2022-09-09T13:44:39;100231.69;;;13.10;47.58
35489;BME280;21602;55.670;37.578;2022-09-09T13:47:19;100223.50;;;13.05;47.47
35489;BME280;21602;55.670;37.578;2022-09-09T13:49:46;100226.56;;;13.08;47.52
35489;BME280;21602;55.670;37.578;2022-09-09T13:52:14;100228.88;;;13.05;47.32
35489;BME280;21602;55.670;37.578;2022-09-09T13:54:49;100230.91;;;12.91;47.14
35489;BME280;21602;55.670;37.578;2022-09-09T13:57:23;100220.81;;;12.93;47.22
35489;BME280;21602;55.670;37.578;2022-09-09T13:59:52;100216.34;;;12.87;47.51
35489;BME280;21602;55.670;37.578;2022-09-09T14:02:20;100221.84;;;12.92;47.34
35489;BME280;21602;55.670;37.578;2022-09-09T14:04:48;100214.31;;;13.01;47.57
35489;BME280;21602;55.670;37.578;2022-09-09T14:07:18;100220.63;;;13.18;47.51
35489;BME280;21602;55.670;37.578;2022-09-09T14:09:44;100225.84;;;13.31;47.62
35489;BME280;21602;55.670;37.578;2022-09-09T14:12:15;100211.16;;;13.34;47.24
35489;BME280;21602;55.670;37.578;2022-09-09T14:14:42;100218.84;;;13.42;47.27
35489;BME280;21602;55.670;37.578;2022-09-09T14:17:08;100215.03;;;13.50;46.98
35489;BME280;21602;55.670;37.578;2022-09-09T14:19:34;100217.84;;;13.55;47.02
35489;BME280;21602;55.670;37.578;2022-09-09T14:22:00;100206.97;;;13.50;46.53
35489;BME280;21602;55.670;37.578;2022-09-09T14:24:27;100217.59;;;13.45;46.77
35489;BME280;21602;55.670;37.578;2022-09-09T14:26:53;100231.66;;;13.28;46.91
35489;BME280;21602;55.670;37.578;2022-09-09T14:29:19;100232.53;;;13.11;47.38
35489;BME280;21602;55.670;37.578;2022-09-09T14:31:45;100219.88;;;12.99;47.67
35489;BME280;21602;55.670;37.578;2022-09-09T14:34:12;100230.22;;;12.96;47.50
35489;BME280;21602;55.670;37.578;2022-09-09T14:36:40;100215.53;;;12.87;47.83
35489;BME280;21602;55.670;37.578;2022-09-09T14:39:07;100217.16;;;12.88;48.09
35489;BME280;21602;55.670;37.578;2022-09-09T14:41:33;100219.50;;;12.96;48.13
35489;BME280;21602;55.670;37.578;2022-09-09T14:43:59;100213.47;;;13.00;48.07
35489;BME280;21602;55.670;37.578;2022-09-09T14:46:26;100218.88;;;13.12;47.93
35489;BME280;21602;55.670;37.578;2022-09-09T14:48:52;100218.94;;;13.24;47.79
35489;BME280;21602;55.670;37.578;2022-09-09T14:51:20;100217.91;;;13.37;47.60
35489;BME280;21602;55.670;37.578;2022-09-09T14:53:48;100217.09;;;13.36;47.67
35489;BME280;21602;55.670;37.578;2022-09-09T14:56:18;100214.66;;;13.35;47.76
35489;BME280;21602;55.670;37.578;2022-09-09T14:58:45;100218.16;;;13.35;47.72